• Join FlightAware (Why Join?)
  • Login
  • US Flag 
05:45AM EDT


 

Airport Tracker/Info


-or-


 

Live Flight TrackerFlight Track Log ✈ GJS3706 ✈ 27-Jun-2013 ✈ KORD - KALB

Flight Track Log - Related Links

Times and Time Zones

All times are in EDT time to prevent confusion due to time zone crossing. See the GJS3706 flight status page for this flight to view local times or setup timezone preferences in your user account.

Time Position Orientation Groundspeed Altitude Reporting Facility
EDT Latitude Longitude Course Direction KTS MPH feet Rate Location/Type
09:10AM 42.0167 -87.9333 66° East 183 211 2,500  Level Chicago TRACON
09:11AM 42.0667 -87.9000 26° Northeast 225 259 4,500 2,280 Climbing Chicago TRACON
09:12AM 42.1267 -87.8133 47° Northeast 264 304 7,700 2,400 Climbing Chicago Center
09:13AM 42.1659 -87.3523 66° East  Level FlightAware Approximate
09:13AM 42.1497 -87.7117 73° East 283 326 10,300  Level Chicago Center
09:14AM 42.2133 -87.2102 66° East  Level FlightAware Approximate
09:14AM 42.1783 -87.5722 74° East 318 366 12,200  Level Chicago Center
09:15AM 42.2607 -87.0679 66° East  Level FlightAware Approximate
09:15AM 42.2033 -87.4397 76° East 356 410 14,000  Level Chicago Center
09:16AM 42.2294 -87.3042 75° East 373 429 16,000 1,860 Climbing Chicago Center
09:17AM 42.2572 -87.1644 75° East 383 441 17,900 1,740 Climbing Chicago Center
09:18AM 42.2828 -87.0200 77° East 395 455 19,700 1,740 Climbing Chicago Center
09:19AM 42.2894 -86.8342 87° East 413 475 21,600 1,500 Climbing Chicago Center
09:20AM 42.2931 -86.6794 88° East 426 490 22,900 1,260 Climbing Chicago Center
09:21AM 42.3006 -86.5017 87° East 444 511 24,300 1,260 Climbing Chicago Center
09:22AM 42.3067 -86.3308 87° East 455 524 25,600 1,200 Climbing Chicago Center
09:23AM 42.3133 -86.1569 87° East 465 535 26,900 1,080 Climbing Chicago Center
09:24AM 42.3147 -85.9794 89° East 477 549 27,900 900 Climbing Chicago Center
09:26AM 42.3114 -85.8019 91° East 478 550 28,800 1,200 Climbing Chicago Center
09:27AM 42.3094 -85.5814 91° East 490 564 30,500 1,500 Climbing Chicago Center
09:28AM 42.3072 -85.4011 91° East 485 558 32,000 1,440 Climbing Chicago Center
09:29AM 42.3050 -85.2242 91° East 476 548 33,600 1,200 Climbing Chicago Center
09:30AM 42.3019 -85.0506 91° East 467 537 34,500 900 Climbing Chicago Center
09:31AM 42.2978 -84.8758 92° East 467 537 35,500 900 Climbing Chicago Center
09:32AM 42.2953 -84.6650 91° East 467 537 36,400 960 Climbing Chicago Center
09:33AM 42.3111 -84.4922 83° East 464 534 37,500 900 Climbing Chicago Center
09:34AM 42.3217 -84.3381 85° East 457 526 38,200 780 Climbing Cleveland Center
09:35AM 42.3375 -84.1706 83° East 457 526 39,000 360 Climbing Cleveland Center
09:36AM 42.3531 -84.0000 83° East 452 520 39,000  Level Cleveland Center
09:37AM 42.3664 -83.8292 84° East 452 520 39,000  Level Cleveland Center
09:38AM 42.3836 -83.6558 82° East 459 528 39,000  Level Cleveland Center
09:39AM 42.3944 -83.4819 85° East 459 528 39,000  Level Cleveland Center
09:40AM 42.4067 -83.3194 84° East 464 534 39,000  Level Cleveland Center
09:41AM 42.4214 -83.1400 84° East 469 540 39,000  Level Cleveland Center
09:42AM 42.4333 -82.9661 85° East 474 545 39,000  Level Cleveland Center
09:43AM 42.4453 -82.7892 85° East 474 545 39,000  Level Cleveland Center
09:44AM 42.4589 -82.6094 84° East 474 545 39,000  Level Cleveland Center
09:45AM 42.4703 -82.4353 85° East 474 545 39,000  Level Cleveland Center
09:46AM 42.4833 -82.2583 84° East 474 545 39,000  Level Cleveland Center
09:47AM 42.4942 -82.0811 85° East 474 545 39,000  Level Cleveland Center
09:48AM 42.5047 -81.9039 85° East 474 545 39,000  Level Cleveland Center
09:49AM 42.5214 -81.7156 83° East 469 540 39,000  Level Cleveland Center
09:50AM 42.5333 -81.5356 85° East 464 534 39,000  Level Cleveland Center
09:51AM 42.5450 -81.3639 85° East 459 528 39,000  Level Cleveland Center
09:52AM 42.5544 -81.1919 86° East 459 528 39,000  Level Cleveland Center
09:53AM 42.5636 -81.0314 86° East 464 534 39,000  Level Cleveland Center
09:54AM 42.5725 -80.8567 86° East 465 535 39,000  Level Cleveland Center
09:55AM 42.5811 -80.6819 86° East 460 529 39,000  Level Cleveland Center
09:56AM 42.5914 -80.5069 85° East 466 536 39,000  Level Cleveland Center
09:57AM 42.5994 -80.3264 86° East 466 536 39,000  Level Cleveland Center
09:58AM 42.6117 -80.1486 85° East 466 536 39,000  Level Cleveland Center
09:59AM 42.6189 -79.9511 87° East 466 536 39,000  Level Cleveland Center
10:00AM 42.6303 -79.7706 85° East 466 536 39,000  Level Cleveland Center
10:01AM 42.6394 -79.5897 86° East 472 543 39,000  Level Cleveland Center
10:02AM 42.6439 -79.4119 88° East 478 550 39,000  Level Cleveland Center
10:03AM 42.6525 -79.2311 86° East 478 550 39,000  Level Cleveland Center
10:04AM 42.6606 -79.0444 87° East 478 550 39,000  Level Cleveland Center
10:05AM 42.6683 -78.8636 87° East 478 550 39,000 -660 Level Cleveland Center
10:06AM 42.6739 -78.6828 88° East 478 550 37,700 -1,560 Descending Cleveland Center
10:07AM 42.6789 -78.4989 88° East 478 550 35,900 -1,800 Descending Cleveland Center
10:08AM 42.6861 -78.3178 87° East 478 550 34,100 -1,800 Descending Cleveland Center
10:09AM 42.6908 -78.1397 88° East 478 550 32,300 -1,800 Descending Cleveland Center
10:10AM 42.6972 -77.9614 87° East 478 550 30,600 -1,680 Descending Cleveland Center
10:11AM 42.7053 -77.7747 87° East 478 550 29,000 -840 Descending Cleveland Center
10:12AM 42.7047 -77.5853 90° East 483 556 29,000  Level Cleveland Center
10:13AM 42.7147 -77.2675 87° East 496 571 29,000  Level Boston Center
10:14AM 42.7186 -77.0756 88° East 501 577 29,000  Level Boston Center
10:15AM 42.7244 -76.8781 88° East 506 582 29,000  Level Boston Center
10:16AM 42.7294 -76.6889 88° East 511 588 29,000  Level Boston Center
10:17AM 42.7325 -76.4939 89° East 511 588 29,000  Level Boston Center
10:18AM 42.7350 -76.3019 89° East 511 588 29,000 -420 Level Boston Center
10:19AM 42.7386 -76.1325 88° East 509 586 28,200 -1,500 Descending Boston Center
10:20AM 42.7422 -75.9489 88° East 493 567 26,100 -2,040 Descending Boston Center
10:21AM 42.7433 -75.7764 89° East 473 544 24,200 -1,980 Descending Boston Center
10:22AM 42.7439 -75.6094 90° East 450 518 22,200 -2,040 Descending Boston Center
10:23AM 42.7336 -75.4478 95° East 436 502 20,200 -2,100 Descending Boston Center
10:24AM 42.7106 -75.2942 101° East 425 489 18,100 -2,100 Descending Boston Center
10:25AM 42.6872 -75.1433 102° East 411 473 16,100 -1,920 Descending Boston Center
10:26AM 42.6653 -75.0039 102° East 391 450 14,300 -1,800 Descending Boston Center
10:27AM 42.6411 -74.8675 103° East 381 438 12,500 -1,740 Descending Boston Center
10:28AM 42.6147 -74.7394 106° East 363 418 11,100 -780 Descending Boston Center
10:29AM 42.5886 -74.5889 103° East 361 415 11,000 -120 Descending Boston Center
10:30AM 42.5697 -74.4783 103° East 337 388 10,900 -660 Descending Boston Center
10:31AM 42.5800 -74.3631 83° East 294 338 9,700 -1,080 Descending Boston Center
10:32AM 42.6333 -74.2914 45° Northeast 265 305 8,800 -1,020 Descending Boston Center
10:33AM 42.6908 -74.2139 45° Northeast 265 305 7,700 -960 Descending Boston Center
10:35AM 42.7211 -74.1358 62° Northeast 250 288 6,800 -1,320 Descending Boston Center
10:35AM 42.7581 -74.0406 62° Northeast 243 280 5,000 -1,920 Descending Boston Center